Accueil
METAR-TAF:

METAR-TAF

Aéroports :

Cervia, Italie

latitude: 44-13N, longitude: 012-18E, altitude: 6 m

Observation

Le bulletin a été fait il y a 27 minutes, à 09:55 UTC
Vent 12 kt de nord-ouest
Température 6°C
Humidité 81%
Pression 1010 hPa
Visibilité 10 km ou plus
Nuages épars à une hauteur de 2500 ft

METAR: LIPC 240955Z 31012KT 9999 SCT025 06/03 Q1010 RMK OVC BKN070 VIS MIN 9999 WIND THR11 31010KT WIND THR29 /////KT BLU

Heure: 11:22 (10:22 UTC)

Prévision

Le bulletin a été fait il y a 2 heures et 22 minutes, à 08:00 UTC
Prévision valable du 24 à 09 UTC au 24 à 18 UTC
Vent 10 kt de nord/nord-est
Visibilité: 7000 m
Nuages fragmentés à une hauteur de 2500 ft
Temporairement
du 24 à 09 UTC au 24 à 18 UTC
Visibilité: 5000 m
pluie, brume

TAF: LIPC 240800Z 2409/2418 02010KT 7000 BKN025 TEMPO 2409/2418 5000 RA BR

Observations et prévisions météorologiques de plus de 4000 aéroports (messages METAR et TAF).

Les stations disponibles sont représentées par des disques jaunes et rouges sur la carte.

Passer la souris dessus pour voir le nom de la station.

Cliquer dessus pour voir les observations et prévisions météorologiques.

Pour changer de carte: cliquez sur les boutons verts avec une croix noire pour zoomer, sur le bouton vert avec un tiret pour effectuer un zoom arrière, ou sur les flèches vertes pour les cartes adjacentes.


METAR-TAF: